East Farmington, Wisconsin
Current Conditions -  °F | °C
As of 5:55 PM on Friday 24 Oct 2014 (Local Time) from KOEO Reporting Station
Clear Clear  
Wind Chill: 58°   Ceiling: Unl
Heat Index: 58°   Visibility: 10mi
Dew Point: 56°   Wind: 5mph
Humidity: 96%   Direction: 160°SSE
Pressure: 29.87"   Gusts: NA
Location:  45.3193°N, 92.6951°W
Report Text: KOEO 242255Z AUTO 16004KT 10SM CLR 14/14 A2987 RMK AO2 T01420136
Loading
Personal Weather Stations






























Interactive Weather Map
Tropical Storm Tracking
New forecast layout! Learn more

10-Day Weather Forecast

Advertisements
Track Severe Weather on mobile